Time;durP1;ratioP1;P1;durP2;ratioP2;P2;SDS_P1;SDS_P2;PMS_P1;PMS_P2;Temp;Humidity;BMP_temperature;BMP_pressure;BME280_temperature;BME280_humidity;BME280_pressure;Samples;Min_cycle;Max_cycle;Signal;HPM_P1;HPM_P2
2021/10/27 00:01:32;;;;;;;12.82;9.15;;;8.20;83.60;;;6.49;94.08;96908.56;4992508;28;20493;-69
2021/10/27 00:03:58;;;;;;;11.25;9.18;;;8.10;83.20;;;6.47;93.76;96923.56;5023994;23;20077;-62
2021/10/27 00:06:23;;;;;;;10.65;8.93;;;8.10;83.30;;;6.43;93.80;96924.84;5001869;28;20036;-62
2021/10/27 00:08:49;;;;;;;11.98;10.35;;;8.10;83.50;;;6.40;93.91;96922.50;5010096;28;20449;-62
2021/10/27 00:11:17;;;;;;;10.27;8.90;;;8.10;83.60;;;6.38;93.71;96919.22;4974630;28;20488;-62
2021/10/27 00:13:43;;;;;;;10.27;9.00;;;8.10;83.30;;;6.34;93.32;96920.47;4974466;28;20039;-63
2021/10/27 00:16:09;;;;;;;10.00;8.75;;;8.10;83.40;;;6.32;93.91;96922.38;4970543;28;20448;-62
2021/10/27 00:18:35;;;;;;;11.80;8.93;;;8.00;83.60;;;6.31;93.28;96923.34;4974679;28;20122;-63
2021/10/27 00:21:01;;;;;;;9.50;8.15;;;8.00;83.50;;;6.26;93.31;96918.53;4989030;28;20062;-63
2021/10/27 00:23:26;;;;;;;10.23;8.00;;;8.00;83.70;;;6.25;93.77;96918.69;4974842;28;20038;-62
2021/10/27 00:25:52;;;;;;;9.10;8.20;;;8.00;84.20;;;6.24;94.16;96919.66;4972140;28;20043;-62
2021/10/27 00:28:18;;;;;;;8.68;7.78;;;8.00;84.40;;;6.22;94.88;96919.81;4973343;28;20077;-63
2021/10/27 00:30:44;;;;;;;11.35;8.50;;;8.00;84.60;;;6.21;94.51;96926.00;4975571;28;20199;-63
2021/10/27 00:33:09;;;;;;;11.93;9.25;;;7.90;84.50;;;6.22;95.10;96924.19;5002587;28;20105;-63
2021/10/27 00:35:35;;;;;;;8.68;7.75;;;8.00;84.40;;;6.22;94.91;96921.59;4971060;28;20063;-63
2021/10/27 00:38:01;;;;;;;9.60;8.10;;;8.00;84.30;;;6.19;94.64;96921.88;4973767;28;20042;-63
2021/10/27 00:40:27;;;;;;;10.13;7.55;;;7.90;84.20;;;6.19;94.81;96927.09;4974311;28;20046;-63
2021/10/27 00:42:53;;;;;;;11.63;8.75;;;7.90;84.20;;;6.18;94.97;96930.69;4987807;28;20525;-63
2021/10/27 00:45:19;;;;;;;8.18;7.13;;;7.90;84.20;;;6.17;94.58;96934.25;4987470;28;20394;-63
2021/10/27 00:47:44;;;;;;;12.70;7.80;;;7.90;84.00;;;6.13;94.67;96934.53;4974102;28;20062;-64
2021/10/27 00:50:10;;;;;;;11.18;7.57;;;7.90;84.00;;;6.12;94.74;96938.13;4972937;28;20026;-63
2021/10/27 00:52:36;;;;;;;10.75;7.78;;;7.80;83.90;;;6.09;94.26;96938.38;4988522;28;20049;-63
2021/10/27 00:55:02;;;;;;;9.85;7.40;;;7.80;84.00;;;6.07;94.83;96945.53;5006235;28;20105;-63
2021/10/27 00:57:27;;;;;;;9.48;7.72;;;7.80;84.00;;;6.04;94.86;96940.59;4958427;28;20060;-63
2021/10/27 00:59:53;;;;;;;9.32;7.10;;;7.70;84.30;;;6.02;95.30;96939.91;4970807;28;20035;-62
2021/10/27 01:02:20;;;;;;;12.27;8.55;;;7.70;84.80;;;6.01;94.71;96946.09;4952907;28;20126;-63
2021/10/27 01:04:46;;;;;;;9.85;7.43;;;7.70;84.60;;;5.98;94.81;96935.94;4970304;28;20113;-63
2021/10/27 01:07:12;;;;;;;12.30;8.38;;;7.70;84.90;;;5.97;95.40;96934.28;4970817;28;20038;-63
2021/10/27 01:09:38;;;;;;;10.32;8.07;;;7.70;85.20;;;5.97;95.22;96934.28;4972479;28;20034;-62
2021/10/27 01:12:05;;;;;;;9.95;7.95;;;7.70;85.00;;;5.96;95.83;96927.41;5003836;28;20145;-63
2021/10/27 01:14:34;;;;;;;11.73;8.05;;;7.70;84.90;;;5.94;95.92;96924.13;4990137;28;20034;-63
2021/10/27 01:17:01;;;;;;;14.38;8.40;;;7.70;85.10;;;5.93;96.30;96925.09;4995870;28;20054;-62
2021/10/27 01:19:26;;;;;;;9.90;7.90;;;7.60;84.90;;;5.91;95.77;96919.19;4954632;28;20058;-63
2021/10/27 01:21:53;;;;;;;12.73;8.02;;;7.60;85.50;;;5.89;96.50;96913.25;4986562;28;20459;-63
2021/10/27 01:24:19;;;;;;;12.98;7.47;;;7.60;85.60;;;5.89;96.25;96910.66;4969622;28;20136;-63
2021/10/27 01:26:44;;;;;;;11.15;7.85;;;7.60;85.60;;;5.89;96.56;96915.88;4971170;28;20057;-63
2021/10/27 01:29:10;;;;;;;11.65;7.32;;;7.60;85.50;;;5.88;96.51;96911.56;4985279;28;20089;-62
2021/10/27 01:31:36;;;;;;;11.30;7.50;;;7.60;85.00;;;5.88;96.20;96908.97;4973086;28;20116;-62
2021/10/27 01:34:02;;;;;;;9.25;7.05;;;7.60;84.60;;;5.86;95.64;96916.13;5002798;28;20051;-63
2021/10/27 01:36:29;;;;;;;8.65;7.20;;;7.60;84.70;;;5.85;95.63;96909.25;4986460;28;20134;-63
2021/10/27 01:38:55;;;;;;;9.70;6.78;;;7.60;84.50;;;5.83;95.75;96916.41;4954766;28;20121;-63
2021/10/27 01:41:21;;;;;;;8.93;6.95;;;7.60;84.60;;;5.81;95.33;96907.88;4987155;28;20042;-64
2021/10/27 01:43:55;;;;;;;12.45;7.07;;;7.60;84.30;;;5.81;94.89;96913.09;4989601;28;20042;-63
2021/10/27 01:46:32;;;;;;;8.20;6.85;;;7.60;84.10;;;5.78;94.82;96905.56;4986486;28;20038;-63
2021/10/27 01:49:02;;;;;;;8.98;6.70;;;7.50;84.10;;;5.76;95.29;96908.31;4955796;28;20148;-62
2021/10/27 01:51:28;;;;;;;10.10;7.30;;;7.50;84.00;;;5.74;94.16;96910.25;4973371;28;20125;-63
2021/10/27 01:53:54;;;;;;;8.95;6.65;;;7.50;83.80;;;5.73;94.42;96915.59;4988963;28;20037;-63
2021/10/27 01:56:21;;;;;;;9.40;7.07;;;7.40;83.90;;;5.69;94.48;96924.66;4970314;28;20031;-63
2021/10/27 01:58:47;;;;;;;10.65;7.00;;;7.40;83.90;;;5.66;93.94;96911.88;4969757;28;20049;-63
2021/10/27 02:01:13;;;;;;;9.55;7.13;;;7.40;83.80;;;5.64;94.74;96913.81;4973134;28;20374;-63
2021/10/27 02:03:38;;;;;;;8.75;7.20;;;7.30;83.70;;;5.58;93.71;96916.97;4970620;28;20070;-62
2021/10/27 02:06:04;;;;;;;9.15;7.88;;;7.30;83.00;;;5.52;93.29;96923.56;4969582;28;20188;-63
2021/10/27 02:08:30;;;;;;;9.45;7.15;;;7.20;82.60;;;5.45;93.18;96918.09;4987862;28;20505;-63
2021/10/27 02:10:57;;;;;;;11.90;7.95;;;7.20;82.50;;;5.42;93.09;96922.72;5004017;28;20038;-62
2021/10/27 02:13:22;;;;;;;10.48;7.82;;;7.10;82.30;;;5.35;93.14;96919.84;4987682;28;20027;-62
2021/10/27 02:15:48;;;;;;;15.77;12.15;;;7.10;82.50;;;5.30;93.54;96919.44;4985831;28;20038;-63
2021/10/27 02:18:14;;;;;;;14.30;9.65;;;7.00;82.70;;;5.27;93.10;96918.88;4989001;28;20536;-63
2021/10/27 02:20:40;;;;;;;11.45;9.25;;;7.00;82.80;;;5.22;92.96;96919.31;4972166;28;20410;-63
2021/10/27 02:23:05;;;;;;;14.00;7.60;;;6.90;82.70;;;5.17;92.67;96913.66;4969024;28;20521;-62
2021/10/27 02:25:31;;;;;;;12.88;9.43;;;6.90;82.10;;;5.11;92.21;96920.22;4972538;28;20030;-62
2021/10/27 02:27:57;;;;;;;17.48;13.90;;;6.80;82.30;;;5.06;92.79;96927.63;4972986;28;20117;-62
2021/10/27 02:30:24;;;;;;;30.80;24.50;;;6.70;82.10;;;5.02;92.37;96936.69;4971093;28;20110;-62
2021/10/27 02:32:50;;;;;;;10.02;7.53;;;6.70;82.40;;;4.96;92.36;96931.16;4987685;28;20057;-63
2021/10/27 02:35:16;;;;;;;10.60;7.07;;;6.60;82.20;;;4.91;92.16;96932.41;4969653;28;20215;-62
2021/10/27 02:37:42;;;;;;;10.57;7.65;;;6.60;82.30;;;4.88;91.81;96924.84;4971861;28;20506;-63
2021/10/27 02:40:08;;;;;;;33.88;7.18;;;6.60;82.40;;;4.84;92.41;96928.69;4968485;28;20041;-65
2021/10/27 02:42:35;;;;;;;19.00;6.95;;;6.60;82.60;;;4.79;92.52;96928.25;4971322;28;20038;-64
2021/10/27 02:45:00;;;;;;;18.13;7.25;;;6.50;83.00;;;4.74;91.97;96927.81;4982290;28;20027;-63
2021/10/27 02:47:26;;;;;;;14.45;5.85;;;6.50;82.40;;;4.70;91.84;96930.81;4988134;28;20080;-64
2021/10/27 02:49:52;;;;;;;18.88;6.82;;;6.40;82.30;;;4.63;91.34;96930.53;4969338;28;20077;-63
2021/10/27 02:52:18;;;;;;;13.98;7.55;;;6.30;82.30;;;4.57;92.12;96934.50;4987099;28;20069;-63
2021/10/27 02:54:43;;;;;;;9.65;6.10;;;6.30;82.10;;;4.53;91.67;96937.50;4998249;28;20073;-63
2021/10/27 02:57:09;;;;;;;32.75;22.95;;;6.20;82.00;;;4.50;91.97;96940.34;4988127;28;20058;-64
2021/10/27 02:59:35;;;;;;;29.27;19.65;;;6.20;82.20;;;4.46;91.70;96944.16;4969327;28;20031;-63
2021/10/27 03:02:01;;;;;;;26.08;8.15;;;6.20;82.60;;;4.46;91.93;96938.97;5004133;28;20035;-63
2021/10/27 03:04:27;;;;;;;22.02;7.20;;;6.20;82.50;;;4.44;92.42;96940.88;4972017;28;20156;-63
2021/10/27 03:06:53;;;;;;;32.08;7.55;;;6.20;82.70;;;4.41;92.46;96949.78;4971828;28;20628;-63
2021/10/27 03:09:18;;;;;;;9.25;6.28;;;6.20;83.10;;;4.40;93.05;96950.72;4955951;28;20062;-62
2021/10/27 03:11:44;;;;;;;7.72;5.80;;;6.20;83.20;;;4.40;93.13;96955.13;4971243;28;20038;-63
2021/10/27 03:14:10;;;;;;;12.75;6.68;;;6.20;83.10;;;4.41;93.24;96946.34;4981688;28;20122;-63
2021/10/27 03:16:36;;;;;;;10.90;6.50;;;6.20;83.20;;;4.43;93.18;96957.47;4966869;28;20202;-63
2021/10/27 03:19:01;;;;;;;9.82;6.28;;;6.30;83.00;;;4.43;93.17;96949.63;4959583;28;20526;-63
2021/10/27 03:21:27;;;;;;;22.77;6.00;;;6.30;83.10;;;4.42;92.76;96950.59;4985308;28;20465;-62
2021/10/27 03:23:53;;;;;;;13.25;6.20;;;6.20;83.10;;;4.40;93.07;96945.53;4971534;28;20505;-63
2021/10/27 03:26:19;;;;;;;12.90;6.13;;;6.20;83.40;;;4.41;93.53;96947.16;4968920;28;20110;-63
2021/10/27 03:28:45;;;;;;;28.55;6.10;;;6.20;83.40;;;4.39;92.79;96943.88;4987731;28;20035;-62
2021/10/27 03:31:10;;;;;;;20.75;5.80;;;6.20;83.30;;;4.39;92.79;96943.03;4967966;28;20069;-63
2021/10/27 03:33:36;;;;;;;11.40;6.85;;;6.20;83.40;;;4.38;92.87;96946.59;4969505;28;20066;-63
2021/10/27 03:36:02;;;;;;;7.28;6.25;;;6.20;83.40;;;4.36;92.63;96951.94;5004438;28;20072;-63
2021/10/27 03:38:28;;;;;;;12.32;6.40;;;6.20;83.30;;;4.35;92.71;96952.91;5004080;28;20414;-62
2021/10/27 03:40:53;;;;;;;17.15;7.60;;;6.20;83.10;;;4.37;93.38;96950.16;4969067;28;20122;-62
2021/10/27 03:43:19;;;;;;;16.65;6.90;;;6.20;83.20;;;4.38;93.69;96951.81;4968909;28;20156;-62
2021/10/27 03:45:45;;;;;;;24.88;7.93;;;6.30;83.60;;;4.37;93.75;96945.78;4956513;28;20066;-63
2021/10/27 03:48:11;;;;;;;9.60;7.50;;;6.20;84.10;;;4.38;94.28;96946.59;4970018;28;20038;-61
2021/10/27 03:50:37;;;;;;;15.63;7.35;;;6.30;84.30;;;4.40;94.41;96949.91;4962247;28;20118;-62
2021/10/27 03:53:03;;;;;;;11.60;6.40;;;6.30;84.30;;;4.42;94.88;96948.81;4987195;28;20031;-63
2021/10/27 03:55:29;;;;;;;10.02;7.15;;;6.30;84.40;;;4.44;95.25;96946.09;4957715;28;20027;-62
2021/10/27 03:57:58;;;;;;;15.63;5.90;;;6.30;84.70;;;4.45;94.64;96947.72;4992172;28;20023;-62
2021/10/27 04:00:24;;;;;;;14.60;6.50;;;6.30;84.50;;;4.46;94.78;96944.16;4976456;28;20076;-62
2021/10/27 04:02:52;;;;;;;10.32;6.15;;;6.30;84.50;;;4.45;94.73;96942.50;4974977;28;20087;-63
2021/10/27 04:05:18;;;;;;;11.57;5.97;;;6.20;84.20;;;4.44;94.18;96952.13;4964723;28;20486;-63
2021/10/27 04:07:44;;;;;;;7.30;6.28;;;6.30;84.10;;;4.43;94.35;96947.03;4956147;28;20038;-63
2021/10/27 04:10:11;;;;;;;8.18;6.22;;;6.20;84.40;;;4.43;94.67;96955.69;4967391;28;20038;-63
2021/10/27 04:12:39;;;;;;;21.58;7.93;;;6.20;84.70;;;4.41;95.19;96943.75;4991367;28;20049;-62
2021/10/27 04:15:07;;;;;;;9.50;6.65;;;6.20;84.80;;;4.39;94.58;96943.03;4974343;28;20213;-62
2021/10/27 04:17:34;;;;;;;9.02;6.47;;;6.20;84.50;;;4.38;94.97;96942.22;4990609;28;20381;-63
2021/10/27 04:20:01;;;;;;;7.38;6.20;;;6.20;84.20;;;4.39;95.03;96950.88;4990734;28;20030;-63
2021/10/27 04:22:27;;;;;;;7.20;6.15;;;6.20;83.80;;;4.38;94.40;96947.44;4990732;28;20573;-62
2021/10/27 04:24:53;;;;;;;6.78;5.50;;;6.20;83.70;;;4.38;94.59;96952.63;4954972;28;20129;-63
2021/10/27 04:27:19;;;;;;;7.53;5.35;;;6.20;83.50;;;4.36;94.25;96949.34;4955310;28;20105;-62
2021/10/27 04:29:44;;;;;;;6.30;5.38;;;6.20;83.30;;;4.35;93.93;96946.88;4954569;28;20126;-62
2021/10/27 04:32:10;;;;;;;6.35;5.30;;;6.20;83.30;;;4.36;94.11;96938.09;4954985;28;20122;-63
2021/10/27 04:34:36;;;;;;;8.35;6.82;;;6.20;83.20;;;4.34;94.46;96945.22;4955063;28;20031;-62
2021/10/27 04:37:02;;;;;;;8.30;6.53;;;6.20;84.30;;;4.33;94.86;96959.19;4954514;28;20054;-63
2021/10/27 04:39:27;;;;;;;6.95;6.25;;;6.10;84.80;;;4.33;94.41;96954.00;4956200;28;20034;-62
2021/10/27 04:41:53;;;;;;;6.05;5.45;;;6.10;84.70;;;4.34;94.68;96956.47;4974274;28;20522;-62
2021/10/27 04:44:19;;;;;;;5.93;5.32;;;6.20;84.70;;;4.34;95.47;96951.25;4974333;28;20127;-62
2021/10/27 04:46:45;;;;;;;5.97;5.38;;;6.20;84.40;;;4.34;95.04;96959.06;4973957;28;20088;-63
2021/10/27 04:49:11;;;;;;;6.05;5.38;;;6.20;84.20;;;4.35;95.02;96962.50;4972412;28;20529;-62
2021/10/27 04:51:37;;;;;;;6.38;5.32;;;6.20;83.90;;;4.34;94.34;96966.06;4973707;28;20406;-63
2021/10/27 04:54:03;;;;;;;6.57;5.88;;;6.20;83.50;;;4.29;94.15;96954.22;5001843;28;20058;-63
2021/10/27 04:56:30;;;;;;;7.13;5.78;;;6.20;83.40;;;4.29;94.25;96958.59;5006759;28;20389;-62
2021/10/27 04:58:55;;;;;;;7.10;5.93;;;6.20;83.60;;;4.29;94.55;96959.44;4973190;28;20036;-63
2021/10/27 05:01:21;;;;;;;7.22;5.82;;;6.20;83.40;;;4.29;94.57;96964.63;4989824;28;20026;-63
2021/10/27 05:03:47;;;;;;;7.22;5.57;;;6.20;83.60;;;4.30;94.78;96965.50;4995008;28;20038;-62
2021/10/27 05:06:12;;;;;;;6.63;5.78;;;6.20;83.90;;;4.32;94.68;96974.00;4968293;28;20038;-63
2021/10/27 05:08:39;;;;;;;8.40;6.53;;;6.20;84.30;;;4.33;95.59;96974.81;4989759;28;20029;-62
2021/10/27 05:11:05;;;;;;;7.50;6.80;;;6.20;84.90;;;4.33;96.05;96977.44;4973269;28;20471;-63
2021/10/27 05:13:30;;;;;;;9.90;7.28;;;6.10;85.90;;;4.30;95.99;96981.94;4989756;28;20056;-62
2021/10/27 05:15:56;;;;;;;8.13;6.88;;;6.10;85.90;;;4.33;96.36;96985.25;4989946;28;20030;-63
2021/10/27 05:18:22;;;;;;;7.32;5.78;;;6.20;85.50;;;4.34;95.75;96986.91;5006131;28;20085;-63
2021/10/27 05:20:48;;;;;;;7.38;6.15;;;6.20;84.80;;;4.34;96.04;96981.69;5002069;28;20031;-63
2021/10/27 05:23:14;;;;;;;7.30;5.93;;;6.20;84.50;;;4.32;95.43;96988.81;4954086;28;20027;-62
2021/10/27 05:25:40;;;;;;;7.07;5.63;;;6.20;84.00;;;4.28;94.59;96983.81;4970483;28;20031;-63
2021/10/27 05:28:05;;;;;;;5.93;5.25;;;6.10;83.60;;;4.26;94.69;96990.94;4978828;28;20037;-62
2021/10/27 05:30:31;;;;;;;6.20;5.57;;;6.10;83.40;;;4.22;93.83;96986.94;4989324;28;20125;-63
2021/10/27 05:32:57;;;;;;;7.20;6.38;;;6.00;83.00;;;4.18;93.56;96984.72;4986685;28;20112;-63
2021/10/27 05:35:27;;;;;;;8.88;7.10;;;6.00;82.80;;;4.13;93.61;96982.53;4970070;28;20412;-65
2021/10/27 05:37:54;;;;;;;8.63;7.28;;;5.90;82.60;;;4.10;92.66;96989.75;5002525;28;20019;-65
2021/10/27 05:40:20;;;;;;;8.90;7.38;;;5.90;82.30;;;4.06;92.65;96991.75;4985726;28;20035;-66
2021/10/27 05:42:46;;;;;;;21.63;11.05;;;5.80;82.10;;;4.01;92.82;96991.31;4973046;28;20030;-64
2021/10/27 05:45:12;;;;;;;17.30;9.70;;;5.80;81.80;;;3.94;92.45;96979.78;4972809;28;20026;-65
2021/10/27 05:47:43;;;;;;;19.42;9.82;;;5.70;81.60;;;3.89;92.06;96987.97;4989400;28;20034;-64
2021/10/27 05:50:24;;;;;;;23.60;10.40;;;5.70;81.80;;;3.82;92.29;96986.81;4973494;28;20157;-65
2021/10/27 05:55:34;;;;;;;21.25;8.32;;;5.50;81.90;;;3.68;92.26;96993.16;4989678;28;20341;-64
2021/10/27 05:58:04;;;;;;;13.05;7.40;;;5.50;81.90;;;3.66;92.15;96992.44;4989512;28;20446;-64
2021/10/27 06:00:31;;;;;;;14.32;6.75;;;5.40;82.10;;;3.61;91.96;96994.56;4989437;28;20494;-65
2021/10/27 06:02:57;;;;;;;9.00;6.78;;;5.40;82.10;;;3.60;92.10;96997.28;4998057;23;20526;-66
2021/10/27 06:05:23;;;;;;;8.77;5.97;;;5.40;83.00;;;3.57;92.74;96990.56;5002035;28;20045;-67
2021/10/27 06:07:49;;;;;;;8.18;5.88;;;5.50;84.00;;;3.63;93.36;96997.06;4953823;28;20022;-68
2021/10/27 06:10:19;;;;;;;7.30;5.43;;;5.50;84.10;;;3.63;93.63;97000.50;4972698;28;20030;-68
2021/10/27 06:12:48;;;;;;;6.45;5.05;;;5.60;83.90;;;3.68;93.79;97006.16;4993801;28;20037;-67
2021/10/27 06:15:15;;;;;;;7.32;5.00;;;5.60;84.10;;;3.72;93.70;97011.09;4976671;28;20062;-68
2021/10/27 06:17:41;;;;;;;7.28;4.28;;;5.70;83.60;;;3.78;93.95;97016.63;4993243;28;20037;-68
2021/10/27 06:20:07;;;;;;;8.32;5.25;;;5.80;83.80;;;3.83;94.01;97011.88;4992504;28;20076;-68
2021/10/27 06:22:33;;;;;;;6.80;5.15;;;5.80;83.50;;;3.87;94.30;97010.69;4964747;28;20077;-68
2021/10/27 06:25:00;;;;;;;8.30;6.10;;;5.90;84.20;;;3.95;94.51;97012.66;4972559;28;20043;-68
2021/10/27 06:27:26;;;;;;;6.57;5.43;;;6.00;84.20;;;3.99;94.51;97003.66;4989704;28;20030;-68
2021/10/27 06:30:14;;;;;;;6.90;5.40;;;6.10;84.30;;;4.06;94.57;97010.00;4957278;28;20034;-68
2021/10/27 06:35:30;;;;;;;7.07;6.10;;;6.10;83.40;;;4.17;94.94;97011.72;4958930;28;20031;-68
2021/10/27 06:48:36;;;;;;;5.85;5.07;;;6.50;82.80;;;4.42;94.07;97024.38;4970406;28;20566;-68
2021/10/27 06:51:02;;;;;;;5.68;4.85;;;6.50;82.70;;;4.48;94.31;97025.63;4977180;28;20121;-68
2021/10/27 06:53:29;;;;;;;6.30;4.82;;;6.60;82.20;;;4.52;93.62;97029.63;4956858;28;20042;-68
2021/10/27 06:55:55;;;;;;;6.22;4.85;;;6.60;81.30;;;4.54;92.96;97028.56;4957167;28;20545;-67
2021/10/27 06:58:22;;;;;;;7.30;4.95;;;6.70;81.00;;;4.59;93.07;97033.38;4956929;28;20026;-67
2021/10/27 07:00:51;;;;;;;6.03;5.43;;;6.70;80.80;;;4.64;93.24;97035.59;4972577;28;20514;-68
2021/10/27 07:16:28;;;;;;;8.57;7.53;;;7.60;79.50;;;5.28;93.48;97041.34;4975584;28;20061;-68
2021/10/27 07:18:54;;;;;;;7.38;6.68;;;7.90;78.90;;;5.45;92.58;97037.28;4971981;28;20113;-66
2021/10/27 07:21:20;;;;;;;6.35;4.97;;;8.10;77.80;;;5.58;92.67;97023.97;4957115;28;20053;-68
2021/10/27 07:23:46;;;;;;;6.93;4.93;;;8.30;77.10;;;5.76;91.93;97030.19;4972751;28;20052;-68
2021/10/27 07:26:14;;;;;;;5.70;5.10;;;8.50;76.80;;;5.92;91.88;97021.84;4959729;28;20550;-68
2021/10/27 07:28:41;;;;;;;5.93;5.07;;;8.70;76.40;;;6.08;91.53;97022.91;4976907;28;20041;-68
2021/10/27 07:31:11;;;;;;;7.38;5.55;;;8.90;76.40;;;6.26;91.70;97019.63;4944291;28;20545;-67
2021/10/27 07:33:37;;;;;;;7.35;4.90;;;9.10;76.30;;;6.38;91.64;97021.94;4961504;28;20477;-68
2021/10/27 07:36:09;;;;;;;10.40;8.50;;;9.30;76.00;;;6.60;91.57;97031.25;4976442;28;20038;-68
2021/10/27 07:41:20;;;;;;;5.47;4.45;;;9.70;74.40;;;6.92;90.29;97015.19;4978591;28;20036;-68
2021/10/27 07:43:45;;;;;;;7.10;4.30;;;9.90;74.10;;;7.12;90.36;97025.56;4976329;28;20419;-68
2021/10/27 07:46:11;;;;;;;4.82;4.00;;;10.10;74.20;;;7.27;90.12;97019.72;4960169;28;20070;-70
2021/10/27 07:48:37;;;;;;;5.05;4.03;;;10.20;73.30;;;7.41;89.19;97034.09;4960333;28;20034;-68
2021/10/27 07:51:03;;;;;;;4.35;3.70;;;10.30;72.90;;;7.50;88.63;97035.03;4962171;28;20101;-68
2021/10/27 07:53:31;;;;;;;12.77;9.93;;;10.30;73.00;;;7.60;88.49;97033.16;4973380;28;20527;-68
2021/10/27 07:55:56;;;;;;;7.28;4.55;;;10.40;72.70;;;7.71;87.76;97026.91;4960178;28;20043;-68
2021/10/27 07:58:23;;;;;;;4.70;3.95;;;10.50;71.80;;;7.79;87.47;97027.81;4960080;28;20041;-68
2021/10/27 08:00:53;;;;;;;7.53;4.07;;;10.60;71.70;;;7.90;87.43;97027.56;4959191;28;20080;-67
2021/10/27 08:03:19;;;;;;;5.57;3.60;;;10.80;71.30;;;8.05;86.98;97034.91;4976368;28;20035;-70
2021/10/27 08:05:45;;;;;;;6.70;4.03;;;11.10;70.90;;;8.14;86.05;97034.81;4976183;28;20036;-69
2021/10/27 08:08:13;;;;;;;5.50;3.80;;;11.00;69.90;;;8.25;86.40;97036.41;4959716;28;20113;-70
2021/10/27 08:10:40;;;;;;;5.47;3.95;;;11.10;70.60;;;8.34;85.76;97038.13;4959566;28;20486;-70
2021/10/27 08:13:06;;;;;;;4.53;3.90;;;11.20;70.40;;;8.44;85.44;97041.50;4981936;28;20030;-70
2021/10/27 08:15:32;;;;;;;4.72;3.90;;;11.30;70.10;;;8.55;85.40;97033.38;4979170;28;20045;-69
2021/10/27 08:17:58;;;;;;;6.53;4.38;;;11.50;69.40;;;8.69;84.83;97036.44;5011340;28;20343;-69
2021/10/27 08:20:26;;;;;;;7.05;5.13;;;11.80;68.70;;;8.82;84.37;97034.22;4995080;28;20033;-70
2021/10/27 08:22:57;;;;;;;5.15;4.45;;;11.90;67.80;;;8.96;84.24;97031.03;4978504;28;20089;-70
2021/10/27 08:28:09;;;;;;;5.53;4.35;;;12.60;65.80;;;9.43;83.11;97030.56;4977125;28;20402;-70
2021/10/27 08:30:52;;;;;;;6.93;4.75;;;13.20;64.00;;;9.74;83.27;97036.94;4976609;28;20464;-70
2021/10/27 08:33:42;;;;;;;5.65;3.90;;;13.70;62.80;;;10.06;82.83;97030.06;4975236;28;20066;-70
2021/10/27 08:36:08;;;;;;;4.78;3.97;;;14.00;62.10;;;10.39;81.95;97031.75;4971611;28;20039;-70
2021/10/27 08:38:34;;;;;;;6.80;4.38;;;14.60;60.70;;;10.68;81.54;97020.72;5004596;28;20161;-70
2021/10/27 08:41:01;;;;;;;6.15;4.40;;;15.00;58.70;;;10.97;80.66;97030.69;4955112;28;20027;-70
2021/10/27 08:43:28;;;;;;;7.32;4.93;;;15.30;57.90;;;11.29;79.54;97029.78;4988262;28;20035;-70
2021/10/27 08:45:54;;;;;;;8.00;5.55;;;15.50;56.50;;;11.53;78.87;97030.66;4972086;28;20031;-69
2021/10/27 08:48:20;;;;;;;7.25;5.00;;;15.80;55.80;;;11.76;78.65;97025.44;4960695;28;20104;-70
2021/10/27 08:50:46;;;;;;;5.93;4.93;;;16.10;54.80;;;11.98;77.58;97021.22;4974800;28;20022;-70
2021/10/27 08:53:14;;;;;;;6.38;5.50;;;16.40;54.60;;;12.22;77.70;97016.63;4958374;28;20352;-71
2021/10/27 08:55:41;;;;;;;6.45;5.03;;;16.60;54.10;;;12.46;76.59;97023.50;4975290;28;20030;-69
2021/10/27 08:58:08;;;;;;;8.63;7.35;;;16.80;54.10;;;12.68;76.70;97027.13;4974889;28;20031;-70
2021/10/27 09:00:40;;;;;;;5.38;4.82;;;17.30;53.30;;;12.86;76.27;97030.22;4974782;28;20035;-70
2021/10/27 09:34:47;;;;;;;8.60;5.57;;;16.50;56.10;;;12.90;72.50;97004.28;4958162;28;20581;-70
2021/10/27 09:42:50;;;;;;;8.10;6.25;;;16.30;57.40;;;12.72;73.82;97007.28;4956304;28;20034;-71
2021/10/27 10:05:23;;;;;;;12.95;9.52;;;15.10;63.70;;;12.40;76.41;97018.09;4976459;28;20033;-70
2021/10/27 10:07:50;;;;;;;11.98;9.57;;;15.10;63.60;;;12.36;75.96;97008.91;4973702;28;20453;-70
2021/10/27 10:10:16;;;;;;;15.75;10.10;;;15.00;63.70;;;12.34;75.90;97010.91;4973524;28;20109;-70
2021/10/27 10:12:50;;;;;;;10.70;9.60;;;15.00;63.40;;;12.34;75.68;97001.16;4954532;28;20114;-70
2021/10/27 10:15:21;;;;;;;14.30;10.68;;;15.00;64.10;;;12.38;76.37;97010.38;4964449;28;20397;-70
2021/10/27 10:17:46;;;;;;;10.38;9.27;;;15.20;63.00;;;12.44;75.95;97006.19;4974155;28;20081;-70
2021/10/27 10:20:13;;;;;;;14.50;10.07;;;15.50;62.20;;;12.57;75.90;97012.50;4973380;28;20442;-70
2021/10/27 10:22:39;;;;;;;10.50;9.27;;;15.90;61.30;;;12.74;76.27;97015.81;4973544;28;20030;-70
2021/10/27 10:25:14;;;;;;;11.88;9.40;;;16.30;60.70;;;12.91;75.88;97010.41;4972780;28;20525;-69
2021/10/27 10:27:40;;;;;;;11.55;10.15;;;16.50;59.60;;;13.00;75.91;97014.56;4989782;28;20070;-70
2021/10/27 10:30:46;;;;;;;10.52;9.32;;;16.40;60.10;;;13.14;74.24;97004.03;4989061;28;20046;-70
2021/10/27 10:33:35;;;;;;;15.85;12.38;;;16.60;59.50;;;13.28;74.76;97007.66;4958090;28;20042;-71
2021/10/27 10:36:24;;;;;;;16.25;13.07;;;16.80;59.20;;;13.37;75.50;97001.31;4989726;28;20462;-67
2021/10/27 10:39:02;;;;;;;14.38;11.27;;;16.80;59.10;;;13.53;74.74;96983.56;4975556;28;20498;-67
2021/10/27 10:42:26;;;;;;;13.73;11.80;;;16.90;59.40;;;13.69;74.06;96984.19;4946212;28;20038;-68
2021/10/27 11:39:32;;;;;;;13.88;10.98;;;40.90;17.80;;;28.68;40.74;96887.13;4978373;28;20524;-69
2021/10/27 11:44:45;;;;;;;9.63;7.22;;;41.70;17.40;;;29.87;38.45;96872.78;4989531;28;20026;-69
2021/10/27 11:47:32;;;;;;;8.68;7.28;;;42.10;16.90;;;30.30;38.99;96866.41;4972612;28;20089;-69
2021/10/27 11:49:57;;;;;;;8.18;7.38;;;42.40;16.70;;;30.74;43.42;96863.25;4970298;28;20035;-69
2021/10/27 11:52:31;;;;;;;9.30;7.95;;;42.50;16.70;;;31.09;35.31;96859.88;4981346;28;20502;-68
2021/10/27 11:54:57;;;;;;;9.13;7.90;;;42.50;16.70;;;31.27;41.03;96860.09;4975647;28;20038;-69
2021/10/27 11:57:28;;;;;;;8.65;7.70;;;42.20;16.80;;;31.43;34.70;96847.78;4960261;28;20036;-69
2021/10/27 11:59:54;;;;;;;8.18;7.22;;;42.30;16.80;;;31.58;38.62;96842.00;4975784;28;20130;-69
2021/10/27 12:02:20;;;;;;;8.93;7.75;;;42.50;16.70;;;31.85;38.34;96843.06;4975884;28;20121;-69
2021/10/27 12:04:46;;;;;;;8.25;7.43;;;42.60;16.50;;;32.09;36.99;96840.06;4959725;28;20226;-68
2021/10/27 12:07:20;;;;;;;10.98;7.90;;;42.90;16.40;;;32.19;36.21;96843.34;4989071;23;20049;-63
2021/10/27 12:10:02;;;;;;;8.77;7.90;;;43.10;16.20;;;32.36;35.71;96837.22;4947352;28;20069;-64
2021/10/27 12:17:59;;;;;;;10.32;9.18;;;43.30;16.40;;;32.61;34.44;96822.16;4956489;28;20143;-63
2021/10/27 12:20:37;;;;;;;9.95;8.52;;;43.10;16.30;;;32.75;29.99;96806.50;4971400;28;20027;-64
2021/10/27 12:23:07;;;;;;;9.05;8.15;;;43.30;16.20;;;32.80;30.53;96806.38;4986643;28;20407;-63
2021/10/27 12:25:33;;;;;;;9.27;8.27;;;43.30;16.20;;;32.85;33.25;96803.56;4971173;28;20518;-63
2021/10/27 12:28:02;;;;;;;9.00;8.07;;;43.10;16.30;;;32.96;33.00;96800.53;4971501;28;20039;-64
2021/10/27 12:30:36;;;;;;;9.52;8.52;;;43.00;16.20;;;33.04;29.16;96792.38;4971448;28;20034;-64
2021/10/27 12:33:04;;;;;;;9.90;8.30;;;43.00;16.30;;;33.09;32.07;96802.34;4954765;28;20136;-63
2021/10/27 12:35:30;;;;;;;11.17;8.50;;;42.80;16.30;;;33.11;31.81;96792.72;4971927;28;20158;-64
2021/10/27 12:38:18;;;;;;;8.90;7.90;;;42.60;16.60;;;33.14;28.92;96786.63;4970748;28;20494;-64
2021/10/27 12:40:46;;;;;;;10.20;9.07;;;42.50;16.60;;;33.05;31.83;96787.75;4944391;28;20050;-63
2021/10/27 12:43:14;;;;;;;9.07;8.18;;;42.40;16.50;;;33.03;30.38;96787.22;4939228;28;20130;-63
2021/10/27 12:45:41;;;;;;;8.60;7.70;;;42.20;16.70;;;33.06;30.97;96787.41;4939600;28;20026;-64
2021/10/27 12:48:22;;;;;;;10.30;9.20;;;42.10;16.80;;;32.92;28.75;96788.66;4948631;28;20090;-63
2021/10/27 12:51:02;;;;;;;9.98;8.63;;;42.20;16.80;;;33.03;27.71;96789.94;4936641;29;20039;-64
2021/10/27 12:53:42;;;;;;;10.25;9.25;;;41.90;16.80;;;33.04;28.25;96780.66;4954873;28;20058;-63
2021/10/27 12:56:11;;;;;;;13.43;9.55;;;41.60;17.00;;;33.05;30.36;96785.00;4969847;28;20031;-64
2021/10/27 12:58:40;;;;;;;7.63;6.85;;;41.70;17.20;;;33.04;29.90;96777.94;4986954;28;20622;-63
2021/10/27 13:02:06;;;;;;;9.55;7.00;;;41.80;16.60;;;33.03;27.14;96768.16;4969994;28;20061;-66
2021/10/27 13:07:19;;;;;;;8.63;6.80;;;41.80;16.40;;;33.08;29.67;96771.56;4934764;28;20134;-63